createdAt,value
2022-10-01T00:23:32.034Z,19.90
2022-10-01T00:27:22.999Z,19.90
2022-10-01T00:31:26.152Z,19.88
2022-10-01T00:35:24.803Z,19.70
2022-10-01T00:39:17.177Z,19.66
2022-10-01T00:43:20.601Z,19.56
2022-10-01T00:47:17.002Z,19.50
2022-10-01T00:55:07.209Z,19.44
2022-10-01T00:59:06.532Z,19.40
2022-10-01T02:12:06.823Z,19.20
2022-10-01T02:16:10.295Z,19.16
2022-10-01T02:20:09.481Z,19.10
2022-10-01T02:24:13.933Z,19.10
2022-10-01T02:28:12.188Z,19.10
2022-10-01T02:32:03.230Z,19.10
2022-10-01T02:35:58.708Z,19.00
2022-10-01T02:39:56.805Z,19.00
2022-10-01T02:43:52.304Z,19.00
2022-10-01T02:47:46.986Z,19.00
2022-10-01T02:52:03.873Z,19.00
2022-10-01T02:55:54.996Z,18.70
2022-10-01T02:59:47.214Z,18.60
2022-10-01T03:03:39.410Z,18.60
2022-10-01T03:07:28.750Z,18.50
2022-10-01T03:11:23.296Z,18.50
2022-10-01T03:15:15.021Z,18.52
2022-10-01T03:19:07.170Z,18.60
2022-10-01T03:23:00.269Z,18.56
2022-10-01T03:26:57.935Z,18.50
2022-10-01T03:30:49.997Z,18.50
2022-10-01T03:34:42.895Z,18.38
2022-10-01T03:38:36.044Z,18.30
2022-10-01T03:42:35.157Z,18.20
2022-10-01T03:46:28.278Z,18.10
2022-10-01T03:50:22.289Z,18.00
2022-10-01T03:54:13.794Z,18.00
2022-10-01T03:58:15.037Z,18.00
2022-10-01T04:34:49.596Z,17.90
2022-10-01T04:57:33.287Z,17.84
2022-10-01T05:01:25.368Z,17.88
2022-10-01T05:05:46.731Z,17.90
2022-10-01T05:09:37.837Z,17.90
2022-10-01T05:13:34.605Z,17.90
2022-10-01T05:43:55.692Z,18.40
2022-10-01T05:47:53.465Z,18.40
2022-10-01T05:51:48.772Z,18.50
2022-10-01T05:55:48.743Z,18.52
2022-10-01T05:59:38.337Z,18.60
2022-10-01T06:03:30.527Z,18.74
2022-10-01T06:07:28.242Z,18.90
2022-10-01T06:11:24.488Z,18.90
2022-10-01T06:43:10.924Z,19.40
2022-10-01T06:47:08.294Z,19.42
2022-10-01T06:51:22.051Z,19.60
2022-10-01T06:55:16.682Z,19.80
2022-10-01T06:59:18.784Z,20.00
2022-10-01T07:03:10.096Z,20.20
2022-10-01T07:07:03.771Z,20.40
2022-10-01T07:57:05.242Z,22.00
2022-10-01T08:00:57.696Z,22.10
2022-10-01T08:27:11.093Z,22.80
2022-10-01T08:31:02.399Z,22.90
2022-10-01T08:34:56.671Z,22.90
2022-10-01T08:38:48.944Z,22.92
2022-10-01T08:42:52.581Z,23.00
2022-10-01T08:46:47.847Z,23.10
2022-10-01T08:50:51.757Z,23.20
2022-10-01T08:54:55.192Z,23.30
2022-10-01T08:58:49.593Z,23.40
2022-10-01T09:20:30.904Z,24.50
2022-10-01T09:24:34.400Z,24.40
2022-10-01T09:28:45.844Z,24.40
2022-10-01T09:32:41.815Z,24.34
2022-10-01T09:36:47.172Z,24.40
2022-10-01T09:40:42.220Z,24.48
2022-10-01T09:44:40.973Z,24.60
2022-10-01T09:51:19.805Z,24.80
2022-10-01T09:54:53.107Z,24.90
2022-10-01T10:01:55.465Z,25.00
2022-10-01T10:09:39.393Z,25.10
2022-10-01T10:13:49.360Z,25.10
2022-10-01T10:17:51.044Z,25.10
2022-10-01T10:25:42.963Z,25.30
2022-10-01T10:29:42.707Z,25.40
2022-10-01T10:33:35.149Z,25.40
2022-10-01T10:37:25.987Z,25.40
2022-10-01T10:45:02.239Z,25.30
2022-10-01T10:48:19.167Z,25.30
2022-10-01T10:51:34.392Z,25.30
2022-10-01T10:55:17.960Z,25.30
2022-10-01T10:58:40.157Z,25.34
2022-10-01T11:05:37.147Z,25.40
2022-10-01T11:09:19.881Z,25.40
2022-10-01T11:13:09.003Z,25.44
2022-10-01T11:16:31.429Z,25.50
2022-10-01T11:19:37.121Z,25.68
2022-10-01T11:23:27.295Z,25.80
2022-10-01T11:27:54.102Z,25.90
2022-10-01T11:31:58.201Z,26.00
2022-10-01T11:35:21.380Z,26.20
2022-10-01T11:38:30.294Z,26.30
2022-10-01T11:41:45.420Z,26.30
2022-10-01T11:44:52.159Z,26.40
2022-10-01T11:48:02.244Z,26.40
2022-10-01T11:51:06.183Z,26.40
2022-10-01T11:54:18.152Z,26.36
2022-10-01T11:57:28.291Z,26.40
2022-10-01T12:01:33.652Z,26.40
2022-10-01T12:04:40.408Z,26.40
2022-10-01T12:07:51.508Z,26.50
2022-10-01T12:11:01.478Z,26.50
2022-10-01T12:14:13.525Z,26.52
2022-10-01T12:17:34.080Z,26.60
2022-10-01T12:21:23.394Z,26.60
2022-10-01T12:24:43.580Z,26.60
2022-10-01T12:27:53.522Z,26.70
2022-10-01T12:31:08.637Z,26.70
2022-10-01T12:34:17.652Z,26.70
2022-10-01T12:37:33.687Z,26.70
2022-10-01T12:40:52.722Z,26.70
2022-10-01T12:44:12.352Z,26.70
2022-10-01T12:47:17.543Z,26.70
2022-10-01T12:50:27.746Z,26.70
2022-10-01T13:00:30.701Z,26.60
2022-10-01T13:03:53.820Z,26.50
2022-10-01T13:07:00.542Z,26.50
2022-10-01T13:10:19.520Z,26.40
2022-10-01T13:13:32.682Z,26.40
2022-10-01T13:16:38.137Z,26.40
2022-10-01T13:19:44.581Z,26.40
2022-10-01T13:22:49.632Z,26.50
2022-10-01T13:25:54.589Z,26.50
2022-10-01T13:28:58.628Z,26.54
2022-10-01T13:32:09.749Z,26.60
2022-10-01T13:35:17.761Z,26.60
2022-10-01T13:38:30.816Z,26.50
2022-10-01T13:41:36.065Z,26.50
2022-10-01T13:44:40.743Z,26.40
2022-10-01T13:47:46.696Z,26.40
2022-10-01T13:50:54.829Z,26.36
2022-10-01T13:54:08.830Z,26.30
2022-10-01T13:57:32.147Z,26.30
2022-10-01T14:00:31.911Z,26.30
2022-10-01T14:03:39.821Z,26.30
2022-10-01T14:06:48.035Z,26.22
2022-10-01T14:10:05.810Z,26.20
2022-10-01T14:13:10.883Z,26.20
2022-10-01T14:16:21.836Z,26.20
2022-10-01T14:19:29.739Z,26.20
2022-10-01T14:22:42.757Z,26.20
2022-10-01T14:25:53.794Z,26.10
2022-10-01T14:29:01.831Z,26.10
2022-10-01T14:32:06.851Z,26.10
2022-10-01T14:35:17.827Z,26.06
2022-10-01T14:38:47.950Z,26.00
2022-10-01T14:42:04.723Z,26.00
2022-10-01T14:45:25.934Z,26.00
2022-10-01T14:49:08.924Z,25.90
2022-10-01T14:52:48.973Z,25.82
2022-10-01T14:55:57.924Z,25.80
2022-10-01T14:59:07.028Z,25.80
2022-10-01T15:02:14.052Z,25.70
2022-10-01T15:05:26.829Z,25.70
2022-10-01T15:08:36.012Z,25.68
2022-10-01T15:11:44.269Z,25.60
2022-10-01T15:14:51.385Z,25.60
2022-10-01T15:17:59.040Z,25.60
2022-10-01T15:21:10.985Z,25.52
2022-10-01T15:24:22.081Z,25.50
2022-10-01T15:30:57.670Z,25.42
2022-10-01T15:34:09.378Z,25.40
2022-10-01T15:41:19.870Z,25.30
2022-10-01T15:44:37.655Z,25.22
2022-10-01T15:48:37.955Z,25.20
2022-10-01T15:59:31.173Z,25.00
2022-10-01T16:03:11.619Z,25.00
2022-10-01T16:10:09.686Z,24.88
2022-10-01T16:14:16.473Z,24.80
2022-10-01T16:18:14.273Z,24.80
2022-10-01T16:21:59.214Z,24.70
2022-10-01T16:26:01.187Z,24.68
2022-10-01T16:29:48.046Z,24.60
2022-10-01T16:32:57.250Z,24.60
2022-10-01T16:36:34.376Z,24.60
2022-10-01T16:39:51.285Z,24.56
2022-10-01T16:43:30.952Z,24.50
2022-10-01T16:46:57.380Z,24.50
2022-10-01T16:50:29.611Z,24.50
2022-10-01T16:53:45.355Z,24.50
2022-10-01T17:04:19.697Z,24.40
2022-10-01T17:11:25.170Z,24.30
2022-10-01T17:15:14.366Z,24.30
2022-10-01T17:18:29.654Z,24.22
2022-10-01T17:21:54.406Z,24.20
2022-10-01T17:25:35.175Z,24.20
2022-10-01T17:28:44.678Z,24.16
2022-10-01T17:32:51.695Z,24.10
2022-10-01T17:36:48.886Z,24.10
2022-10-01T17:40:47.374Z,24.04
2022-10-01T17:44:50.809Z,24.00
2022-10-01T17:56:46.914Z,23.92
2022-10-01T18:01:04.671Z,23.90
2022-10-01T18:07:49.141Z,23.78
2022-10-01T18:11:15.521Z,23.70
2022-10-01T18:14:30.338Z,23.70
2022-10-01T18:17:49.651Z,23.60
2022-10-01T18:21:19.994Z,23.52
2022-10-01T18:28:09.373Z,23.48
2022-10-01T18:31:31.311Z,23.44
2022-10-01T18:39:07.582Z,23.40
2022-10-01T18:50:27.316Z,23.30
2022-10-01T18:54:31.427Z,23.30
2022-10-01T18:58:37.068Z,23.30
2022-10-01T19:06:15.927Z,23.20
2022-10-01T19:13:23.532Z,23.20
2022-10-01T19:17:06.924Z,23.14
2022-10-01T19:21:24.094Z,23.10
2022-10-01T19:24:35.666Z,23.10
2022-10-01T19:27:54.737Z,23.00
2022-10-01T19:34:52.295Z,23.00
2022-10-01T19:38:17.543Z,22.92
2022-10-01T19:41:31.764Z,22.90
2022-10-01T19:44:52.757Z,22.90
2022-10-01T19:48:04.681Z,22.80
2022-10-01T19:51:14.771Z,22.70
2022-10-01T19:58:13.865Z,22.50
2022-10-01T20:01:42.922Z,22.40
2022-10-01T20:08:37.726Z,22.10
2022-10-01T20:11:51.883Z,22.10
2022-10-01T20:15:10.984Z,22.10
2022-10-01T20:28:25.003Z,21.50
2022-10-01T20:32:04.844Z,21.50
2022-10-01T20:35:19.014Z,21.60
2022-10-01T20:39:05.592Z,21.60
2022-10-01T20:42:54.917Z,21.50
2022-10-01T20:46:18.931Z,21.50
2022-10-01T20:50:08.237Z,21.50
2022-10-01T20:53:14.974Z,21.40
2022-10-01T20:56:24.977Z,21.40
2022-10-01T20:59:51.038Z,21.36
2022-10-01T21:03:23.921Z,21.30
2022-10-01T21:06:36.324Z,21.30
2022-10-01T21:10:38.655Z,21.40
2022-10-01T21:14:20.800Z,21.40
2022-10-01T21:17:34.970Z,21.44
2022-10-01T21:20:47.152Z,21.40
2022-10-01T21:24:03.004Z,21.40
2022-10-01T21:27:17.188Z,21.30
2022-10-01T21:31:27.576Z,21.20
2022-10-01T21:34:43.936Z,21.00
2022-10-01T21:38:11.014Z,20.90
2022-10-01T21:41:24.233Z,20.80
2022-10-01T21:44:31.331Z,20.80
2022-10-01T21:47:42.192Z,20.70
2022-10-01T21:50:51.186Z,20.64
2022-10-01T21:54:03.184Z,20.60
2022-10-01T21:57:15.183Z,20.70
2022-10-01T22:00:24.325Z,20.70
2022-10-01T22:03:33.224Z,20.70
2022-10-01T22:06:47.131Z,20.70
2022-10-01T22:09:55.220Z,20.60
2022-10-01T22:13:05.308Z,20.62
2022-10-01T22:22:47.269Z,20.50
2022-10-01T22:26:05.386Z,20.50
2022-10-01T22:29:21.125Z,20.50
2022-10-01T22:32:44.079Z,20.50
2022-10-01T22:36:18.490Z,20.50
2022-10-01T22:40:16.690Z,20.40
2022-10-01T22:44:08.537Z,20.34
2022-10-01T22:47:56.638Z,20.36
2022-10-01T22:51:41.561Z,20.36
2022-10-01T22:55:00.509Z,20.20
2022-10-01T22:58:38.743Z,20.20
2022-10-01T23:05:43.277Z,20.20
2022-10-01T23:08:57.526Z,20.20
2022-10-01T23:12:16.838Z,20.20
2022-10-01T23:16:15.208Z,20.30
2022-10-01T23:23:32.884Z,20.50
2022-10-01T23:27:30.370Z,20.50
2022-10-01T23:31:18.638Z,20.54
2022-10-01T23:35:41.505Z,20.60
2022-10-01T23:39:39.450Z,20.60
2022-10-01T23:43:41.092Z,20.60
2022-10-01T23:47:31.758Z,20.50
2022-10-01T23:58:33.699Z,20.50
